createdAt,value
2018-12-30T00:01:19.356Z,12.00
2018-12-30T00:03:48.251Z,12.30
2018-12-30T00:06:17.155Z,11.97
2018-12-30T00:08:46.228Z,12.90
2018-12-30T00:11:14.920Z,12.03
2018-12-30T00:13:43.600Z,12.60
2018-12-30T00:16:11.997Z,12.77
2018-12-30T00:18:40.976Z,12.90
2018-12-30T00:21:09.394Z,13.17
2018-12-30T00:23:37.757Z,11.97
2018-12-30T00:26:06.147Z,12.60
2018-12-30T00:28:34.605Z,12.40
2018-12-30T00:31:03.382Z,13.00
2018-12-30T00:33:32.679Z,12.50
2018-12-30T00:36:01.368Z,12.70
2018-12-30T00:38:29.773Z,12.27
2018-12-30T00:40:58.451Z,12.87
2018-12-30T00:43:26.845Z,13.10
2018-12-30T00:45:55.509Z,11.80
2018-12-30T00:48:23.913Z,12.13
2018-12-30T00:50:52.295Z,13.47
2018-12-30T00:53:20.942Z,12.00
2018-12-30T00:55:49.627Z,13.53
2018-12-30T00:58:18.020Z,13.13
2018-12-30T01:00:46.798Z,12.37
2018-12-30T01:03:15.489Z,12.90
2018-12-30T01:05:44.170Z,13.00
2018-12-30T01:08:12.572Z,13.43
2018-12-30T01:10:41.341Z,12.93
2018-12-30T01:13:09.834Z,13.87
2018-12-30T01:15:38.713Z,13.23
2018-12-30T01:18:07.094Z,13.70
2018-12-30T01:20:35.521Z,13.80
2018-12-30T01:23:03.921Z,14.40
2018-12-30T01:25:32.310Z,14.90
2018-12-30T01:28:00.735Z,15.50
2018-12-30T01:30:29.610Z,14.33
2018-12-30T01:32:58.283Z,15.00
2018-12-30T01:35:26.674Z,14.70
2018-12-30T01:37:55.455Z,14.20
2018-12-30T01:40:23.835Z,13.70
2018-12-30T01:42:52.844Z,15.67
2018-12-30T01:45:21.232Z,14.07
2018-12-30T01:47:49.611Z,15.20
2018-12-30T01:50:18.012Z,14.57
2018-12-30T01:52:46.411Z,14.37
2018-12-30T01:55:14.842Z,13.40
2018-12-30T01:57:43.277Z,14.00
2018-12-30T02:00:11.991Z,13.97
2018-12-30T02:02:40.393Z,13.80
2018-12-30T02:05:08.879Z,14.60
2018-12-30T02:07:37.257Z,14.40
2018-12-30T02:10:06.801Z,13.50
2018-12-30T02:12:35.633Z,14.00
2018-12-30T02:15:05.136Z,14.13
2018-12-30T02:17:33.816Z,13.80
2018-12-30T02:20:02.709Z,14.00
2018-12-30T02:22:31.804Z,13.13
2018-12-30T02:25:00.189Z,13.67
2018-12-30T02:27:28.687Z,14.20
2018-12-30T02:29:57.488Z,14.40
2018-12-30T02:32:26.545Z,14.50
2018-12-30T02:34:55.858Z,14.53
2018-12-30T02:37:24.518Z,14.03
2018-12-30T02:39:53.227Z,14.20
2018-12-30T02:42:21.653Z,14.93
2018-12-30T02:44:50.158Z,14.97
2018-12-30T02:47:19.125Z,13.50
2018-12-30T02:49:47.519Z,14.23
2018-12-30T02:52:15.905Z,14.80
2018-12-30T02:54:44.554Z,14.93
2018-12-30T02:57:12.948Z,13.30
2018-12-30T02:59:42.503Z,14.17
2018-12-30T03:02:10.883Z,14.30
2018-12-30T03:04:39.703Z,14.07
2018-12-30T03:07:08.094Z,13.37
2018-12-30T03:09:36.846Z,13.50
2018-12-30T03:12:06.139Z,13.53
2018-12-30T03:14:34.830Z,12.90
2018-12-30T03:17:03.232Z,12.50
2018-12-30T03:19:31.613Z,13.30
2018-12-30T03:22:00.007Z,12.23
2018-12-30T03:24:28.469Z,13.80
2018-12-30T03:26:57.234Z,13.60
2018-12-30T03:29:25.633Z,13.43
2018-12-30T03:31:54.052Z,14.07
2018-12-30T03:34:22.436Z,13.20
2018-12-30T03:36:50.852Z,13.13
2018-12-30T03:39:19.222Z,12.70
2018-12-30T03:41:47.622Z,12.30
2018-12-30T03:44:16.303Z,12.83
2018-12-30T03:46:45.493Z,13.70
2018-12-30T03:49:13.879Z,12.57
2018-12-30T03:51:42.261Z,12.57
2018-12-30T03:54:10.667Z,14.40
2018-12-30T03:56:39.046Z,12.27
2018-12-30T03:59:07.433Z,13.27
2018-12-30T04:01:36.417Z,12.90
2018-12-30T04:04:05.089Z,13.60
2018-12-30T04:06:33.760Z,14.03
2018-12-30T04:09:02.160Z,13.30
2018-12-30T04:11:30.562Z,13.30
2018-12-30T04:13:58.953Z,13.10
2018-12-30T04:16:27.336Z,12.87
2018-12-30T04:18:56.161Z,13.43
2018-12-30T04:21:24.847Z,13.03
2018-12-30T04:23:53.250Z,12.60
2018-12-30T04:26:21.632Z,13.63
2018-12-30T04:28:50.292Z,12.47
2018-12-30T04:31:18.693Z,14.27
2018-12-30T04:33:47.137Z,13.30
2018-12-30T04:36:15.553Z,12.90
2018-12-30T04:38:43.958Z,13.40
2018-12-30T04:41:12.343Z,12.47
2018-12-30T04:43:41.211Z,13.00
2018-12-30T04:46:09.598Z,12.60
2018-12-30T04:48:38.581Z,13.50
2018-12-30T04:51:06.974Z,12.03
2018-12-30T04:53:35.370Z,13.00
2018-12-30T04:56:04.033Z,12.80
2018-12-30T04:58:32.418Z,12.63
2018-12-30T05:01:00.822Z,15.00
2018-12-30T05:03:29.655Z,14.23
2018-12-30T05:05:58.536Z,12.80
2018-12-30T05:08:26.930Z,13.43
2018-12-30T05:10:55.324Z,13.13
2018-12-30T05:13:23.705Z,13.40
2018-12-30T05:15:52.105Z,14.47
2018-12-30T05:18:20.509Z,13.70
2018-12-30T05:20:49.222Z,13.47
2018-12-30T05:23:17.615Z,12.50
2018-12-30T05:25:46.004Z,13.50
2018-12-30T05:28:14.392Z,13.20
2018-12-30T05:30:43.002Z,13.30
2018-12-30T05:33:11.366Z,13.70
2018-12-30T05:35:40.185Z,13.03
2018-12-30T05:38:09.003Z,13.17
2018-12-30T05:40:37.692Z,13.40
2018-12-30T05:43:06.396Z,13.20
2018-12-30T05:45:35.055Z,14.13
2018-12-30T05:48:03.447Z,12.63
2018-12-30T05:50:32.332Z,14.83
2018-12-30T05:53:00.721Z,13.37
2018-12-30T05:55:29.112Z,14.30
2018-12-30T05:57:57.507Z,12.07
2018-12-30T06:00:25.911Z,13.33
2018-12-30T06:02:54.294Z,12.20
2018-12-30T06:05:22.695Z,13.80
2018-12-30T06:07:51.085Z,12.70
2018-12-30T06:10:19.492Z,13.13
2018-12-30T06:12:48.017Z,13.87
2018-12-30T06:15:16.398Z,12.80
2018-12-30T06:17:44.798Z,13.90
2018-12-30T06:20:13.184Z,12.80
2018-12-30T06:22:49.325Z,12.50
2018-12-30T06:25:11.787Z,12.30
2018-12-30T06:27:40.449Z,13.40
2018-12-30T06:30:08.824Z,12.70
2018-12-30T06:32:37.444Z,13.40
2018-12-30T06:35:06.561Z,12.87
2018-12-30T06:37:35.183Z,12.57
2018-12-30T06:40:11.090Z,13.80
2018-12-30T06:42:35.068Z,13.60
2018-12-30T06:45:03.532Z,12.50
2018-12-30T06:47:32.222Z,12.87
2018-12-30T06:50:00.653Z,12.87
2018-12-30T06:52:29.007Z,13.53
2018-12-30T06:54:57.393Z,13.03
2018-12-30T06:57:25.796Z,14.23
2018-12-30T06:59:54.232Z,13.43
2018-12-30T07:02:22.683Z,14.07
2018-12-30T07:04:51.067Z,13.70
2018-12-30T07:07:19.473Z,12.37
2018-12-30T07:09:47.894Z,12.97
2018-12-30T07:12:16.277Z,13.20
2018-12-30T07:14:46.441Z,12.80
2018-12-30T07:17:14.828Z,12.70
2018-12-30T07:19:43.224Z,13.23
2018-12-30T07:22:11.612Z,13.20
2018-12-30T07:24:40.011Z,14.13
2018-12-30T07:27:08.402Z,14.10
2018-12-30T07:29:37.242Z,14.30
2018-12-30T07:32:05.628Z,13.57
2018-12-30T07:34:34.991Z,12.50
2018-12-30T07:37:03.390Z,12.20
2018-12-30T07:39:31.803Z,12.90
2018-12-30T07:42:00.435Z,13.00
2018-12-30T07:44:30.146Z,12.40
2018-12-30T07:46:58.538Z,12.40
2018-12-30T07:49:26.923Z,12.70
2018-12-30T07:51:55.319Z,13.07
2018-12-30T07:54:23.702Z,12.90
2018-12-30T07:56:52.086Z,12.97
2018-12-30T07:59:20.498Z,12.60
2018-12-30T08:01:48.888Z,12.00
2018-12-30T08:04:17.280Z,14.17
2018-12-30T08:06:45.664Z,12.53
2018-12-30T08:09:14.320Z,12.93
2018-12-30T08:11:42.712Z,11.97
2018-12-30T08:14:11.094Z,11.47
2018-12-30T08:16:39.780Z,12.33
2018-12-30T08:19:08.168Z,11.10
2018-12-30T08:21:36.964Z,12.30
2018-12-30T08:24:05.647Z,10.87
2018-12-30T08:26:34.046Z,12.03
2018-12-30T08:29:02.830Z,11.37
2018-12-30T08:31:31.709Z,11.70
2018-12-30T08:34:00.106Z,12.53
2018-12-30T08:36:28.909Z,12.77
2018-12-30T08:38:57.576Z,11.80
2018-12-30T08:41:26.527Z,12.07
2018-12-30T08:43:54.933Z,11.93
2018-12-30T08:46:23.647Z,12.00
2018-12-30T08:48:52.039Z,11.90
2018-12-30T08:51:20.442Z,11.90
2018-12-30T08:53:48.822Z,12.57
2018-12-30T08:56:17.202Z,12.30
2018-12-30T08:58:45.600Z,11.90
2018-12-30T09:01:14.541Z,12.37
2018-12-30T09:03:42.925Z,11.90
2018-12-30T09:09:39.652Z,11.90
2018-12-30T09:12:08.045Z,11.93
2018-12-30T09:14:36.429Z,11.30
2018-12-30T09:17:04.895Z,12.00
2018-12-30T09:19:33.683Z,12.20
2018-12-30T09:22:02.077Z,12.57
2018-12-30T09:24:30.842Z,12.70
2018-12-30T09:26:59.532Z,12.57
2018-12-30T09:29:28.047Z,13.30
2018-12-30T09:31:56.909Z,13.70
2018-12-30T09:34:25.299Z,13.00
2018-12-30T09:36:53.703Z,15.17
2018-12-30T09:39:22.088Z,13.00
2018-12-30T09:41:50.833Z,11.87
2018-12-30T09:44:19.306Z,11.67
2018-12-30T09:46:47.687Z,12.20
2018-12-30T09:49:16.086Z,11.40
2018-12-30T09:51:44.483Z,11.97
2018-12-30T09:54:12.875Z,12.33
2018-12-30T09:56:41.516Z,11.17
2018-12-30T09:59:09.900Z,11.80
2018-12-30T10:01:38.566Z,11.97
2018-12-30T10:04:07.012Z,12.17
2018-12-30T10:06:35.401Z,11.20
2018-12-30T10:09:05.340Z,10.83
2018-12-30T10:11:33.908Z,11.17
2018-12-30T10:14:02.381Z,12.70
2018-12-30T10:16:30.762Z,11.53
2018-12-30T10:18:59.156Z,11.80
2018-12-30T10:21:27.559Z,12.40
2018-12-30T10:23:55.957Z,11.83
2018-12-30T10:26:24.357Z,11.53
2018-12-30T10:28:52.744Z,11.50
2018-12-30T10:31:21.141Z,11.07
2018-12-30T10:33:49.681Z,11.83
2018-12-30T10:36:18.086Z,12.30
2018-12-30T10:38:46.499Z,11.83
2018-12-30T10:41:14.899Z,10.80
2018-12-30T10:43:43.297Z,11.50
2018-12-30T10:46:11.686Z,11.60
2018-12-30T10:48:40.514Z,11.33
2018-12-30T10:51:08.894Z,11.17
2018-12-30T10:53:37.378Z,10.70
2018-12-30T10:56:05.880Z,10.93
2018-12-30T10:58:34.284Z,12.30
2018-12-30T11:01:02.666Z,11.00
2018-12-30T11:03:31.073Z,11.87
2018-12-30T11:06:01.095Z,11.70
2018-12-30T11:08:29.480Z,11.57
2018-12-30T11:10:57.950Z,12.67
2018-12-30T11:13:26.434Z,10.40
2018-12-30T11:15:54.983Z,11.53
2018-12-30T11:18:23.393Z,11.07
2018-12-30T11:20:51.855Z,11.00
2018-12-30T11:23:20.291Z,11.97
2018-12-30T11:25:48.698Z,10.40
2018-12-30T11:28:17.082Z,11.50
2018-12-30T11:30:45.470Z,11.60
2018-12-30T11:33:14.018Z,11.87
2018-12-30T11:35:42.423Z,12.00
2018-12-30T11:38:10.820Z,11.50
2018-12-30T11:40:39.211Z,12.20
2018-12-30T11:43:07.641Z,11.03
2018-12-30T11:45:36.140Z,11.80
2018-12-30T11:48:05.012Z,11.20
2018-12-30T11:50:33.396Z,11.70
2018-12-30T11:53:01.986Z,12.17
2018-12-30T11:55:30.646Z,11.60
2018-12-30T11:57:59.052Z,11.33
2018-12-30T12:00:28.051Z,11.80
2018-12-30T12:02:56.692Z,12.90
2018-12-30T12:05:25.076Z,11.13
2018-12-30T12:07:53.468Z,11.63
2018-12-30T12:10:22.421Z,12.50
2018-12-30T12:12:50.806Z,12.07
2018-12-30T12:15:26.179Z,12.13
2018-12-30T12:17:54.589Z,12.37
2018-12-30T12:20:22.980Z,12.07
2018-12-30T12:22:51.363Z,12.70
2018-12-30T12:25:20.031Z,12.73
2018-12-30T12:27:48.410Z,11.93
2018-12-30T12:30:16.796Z,12.60
2018-12-30T12:32:46.124Z,11.67
2018-12-30T12:35:14.522Z,12.37
2018-12-30T12:37:42.916Z,12.40
2018-12-30T12:40:11.441Z,13.10
2018-12-30T12:42:40.477Z,12.07
2018-12-30T12:45:09.109Z,13.63
2018-12-30T12:47:37.500Z,13.80
2018-12-30T12:50:06.638Z,13.53
2018-12-30T12:52:35.024Z,12.70
2018-12-30T12:55:03.586Z,12.53
2018-12-30T12:57:31.978Z,13.37
2018-12-30T13:00:00.366Z,12.90
2018-12-30T13:02:28.773Z,12.90
2018-12-30T13:04:57.153Z,13.07
2018-12-30T13:07:25.541Z,13.17
2018-12-30T13:09:53.946Z,12.80
2018-12-30T13:12:22.358Z,14.83
2018-12-30T13:14:50.744Z,14.40
2018-12-30T13:17:19.145Z,14.47
2018-12-30T13:19:49.076Z,14.67
2018-12-30T13:22:17.466Z,15.10
2018-12-30T13:24:45.862Z,14.43
2018-12-30T13:27:14.291Z,14.93
2018-12-30T13:29:42.999Z,13.47
2018-12-30T13:32:11.724Z,14.33
2018-12-30T13:34:40.146Z,13.90
2018-12-30T13:37:08.541Z,14.70
2018-12-30T13:39:36.946Z,14.77
2018-12-30T13:42:05.339Z,14.50
2018-12-30T13:44:33.754Z,14.30
2018-12-30T13:47:02.138Z,15.23
2018-12-30T13:49:30.617Z,13.47
2018-12-30T13:51:59.162Z,14.07
2018-12-30T13:54:27.550Z,14.60
2018-12-30T13:56:55.953Z,13.13
2018-12-30T13:59:24.342Z,13.10
2018-12-30T14:01:53.070Z,13.47
2018-12-30T14:04:21.524Z,13.80
2018-12-30T14:06:50.227Z,13.13
2018-12-30T14:09:18.618Z,13.90
2018-12-30T14:11:59.627Z,14.20
2018-12-30T14:14:27.813Z,12.60
2018-12-30T14:16:56.436Z,11.87
2018-12-30T14:19:24.911Z,13.73
2018-12-30T14:21:53.301Z,13.80
2018-12-30T14:24:22.094Z,13.23
2018-12-30T14:26:50.495Z,13.63
2018-12-30T14:29:18.987Z,13.23
2018-12-30T14:31:47.569Z,13.37
2018-12-30T14:34:15.952Z,13.97
2018-12-30T14:36:44.408Z,13.77
2018-12-30T14:39:12.808Z,14.10
2018-12-30T14:41:41.267Z,13.00
2018-12-30T14:44:09.652Z,13.37
2018-12-30T14:46:38.093Z,14.00
2018-12-30T14:49:06.734Z,14.73
2018-12-30T14:51:35.391Z,16.83
2018-12-30T14:54:03.842Z,17.17
2018-12-30T14:56:32.446Z,14.47
2018-12-30T14:59:00.855Z,13.83
2018-12-30T15:01:29.268Z,13.20
2018-12-30T15:03:57.670Z,13.97
2018-12-30T15:06:26.077Z,13.80
2018-12-30T15:08:54.978Z,13.40
2018-12-30T15:11:23.635Z,14.77
2018-12-30T15:13:52.037Z,14.40
2018-12-30T15:16:20.636Z,14.50
2018-12-30T15:18:49.039Z,14.70
2018-12-30T15:21:17.420Z,16.47
2018-12-30T15:23:46.251Z,15.70
2018-12-30T15:26:14.651Z,15.00
2018-12-30T15:28:43.040Z,14.63
2018-12-30T15:31:11.438Z,15.77
2018-12-30T15:33:40.391Z,14.60
2018-12-30T15:36:08.788Z,14.37
2018-12-30T15:38:37.183Z,14.83
2018-12-30T15:41:05.567Z,14.73
2018-12-30T15:43:34.038Z,15.47
2018-12-30T15:46:02.423Z,14.60
2018-12-30T15:48:31.005Z,14.80
2018-12-30T15:50:59.416Z,15.97
2018-12-30T15:53:27.799Z,15.83
2018-12-30T15:55:56.228Z,16.10
2018-12-30T15:58:24.703Z,16.00
2018-12-30T16:00:53.094Z,16.70
2018-12-30T16:03:21.515Z,15.43
2018-12-30T16:05:57.423Z,16.60
2018-12-30T16:08:20.026Z,18.40
2018-12-30T16:10:48.419Z,16.10
2018-12-30T16:13:16.953Z,16.30
2018-12-30T16:15:45.413Z,17.07
2018-12-30T16:18:13.816Z,16.43
2018-12-30T16:20:42.840Z,17.17
2018-12-30T16:23:11.214Z,16.63
2018-12-30T16:25:39.699Z,16.23
2018-12-30T16:28:08.443Z,17.97
2018-12-30T16:30:37.106Z,16.57
2018-12-30T16:33:05.557Z,17.17
2018-12-30T16:35:34.489Z,16.40
2018-12-30T16:38:02.874Z,17.90
2018-12-30T16:40:31.405Z,17.67
2018-12-30T16:42:59.798Z,17.30
2018-12-30T16:45:28.250Z,18.90
2018-12-30T16:47:57.378Z,19.10
2018-12-30T16:50:25.773Z,18.73
2018-12-30T16:52:54.197Z,18.30
2018-12-30T16:55:22.946Z,19.20
2018-12-30T16:57:51.403Z,20.90
2018-12-30T17:00:19.806Z,19.90
2018-12-30T17:02:48.265Z,20.60
2018-12-30T17:05:16.747Z,19.87
2018-12-30T17:07:45.213Z,22.07
2018-12-30T17:10:13.682Z,22.40
2018-12-30T17:12:42.074Z,22.50
2018-12-30T17:15:12.630Z,22.47
2018-12-30T17:18:03.853Z,24.30
2018-12-30T17:20:32.248Z,23.40
2018-12-30T17:23:00.630Z,25.53
2018-12-30T17:25:29.059Z,24.50
2018-12-30T17:28:00.953Z,25.80
2018-12-30T17:30:29.779Z,25.47
2018-12-30T17:33:01.663Z,25.67
2018-12-30T17:35:30.388Z,25.80
2018-12-30T17:37:58.842Z,27.30
2018-12-30T17:40:27.296Z,26.10
2018-12-30T17:42:55.751Z,27.70
2018-12-30T17:45:24.304Z,26.87
2018-12-30T17:47:53.222Z,27.47
2018-12-30T17:50:21.638Z,27.00
2018-12-30T17:52:50.046Z,29.13
2018-12-30T17:55:19.483Z,27.50
2018-12-30T17:57:48.180Z,28.83
2018-12-30T18:00:16.620Z,28.73
2018-12-30T18:02:45.021Z,29.97
2018-12-30T18:05:13.504Z,29.90
2018-12-30T18:07:41.950Z,30.40
2018-12-30T18:10:10.464Z,30.00
2018-12-30T18:12:39.041Z,31.10
2018-12-30T18:15:08.556Z,32.60
2018-12-30T18:17:41.289Z,30.30
2018-12-30T18:20:08.276Z,31.00
2018-12-30T18:22:38.810Z,32.17
2018-12-30T18:25:09.477Z,32.60
2018-12-30T18:27:39.084Z,32.70
2018-12-30T18:30:08.858Z,33.30
2018-12-30T18:32:37.248Z,33.87
2018-12-30T18:35:06.037Z,33.10
2018-12-30T18:37:35.236Z,34.73
2018-12-30T18:40:05.440Z,37.07
2018-12-30T18:42:33.823Z,35.50
2018-12-30T18:45:02.207Z,34.73
2018-12-30T18:47:30.602Z,36.70
2018-12-30T18:49:59.601Z,37.50
2018-12-30T18:52:27.989Z,37.47
2018-12-30T18:54:58.821Z,34.70
2018-12-30T18:57:29.878Z,36.33
2018-12-30T18:59:59.644Z,34.33
2018-12-30T19:02:31.284Z,34.50
2018-12-30T19:05:08.817Z,36.60
2018-12-30T19:07:37.599Z,35.50
2018-12-30T19:10:07.497Z,35.80
2018-12-30T19:12:36.180Z,33.90
2018-12-30T19:15:06.226Z,34.80
2018-12-30T19:17:34.610Z,34.70
2018-12-30T19:20:04.388Z,35.73
2018-12-30T19:22:32.785Z,34.93
2018-12-30T19:25:01.494Z,35.17
2018-12-30T19:27:30.141Z,34.63
2018-12-30T19:29:58.840Z,36.20
2018-12-30T19:32:27.506Z,34.43
2018-12-30T19:34:59.112Z,34.67
2018-12-30T19:37:27.512Z,34.77
2018-12-30T19:39:55.922Z,34.87
2018-12-30T19:42:24.323Z,33.93
2018-12-30T19:44:52.745Z,34.10
2018-12-30T19:47:21.157Z,33.70
2018-12-30T19:49:49.775Z,33.57
2018-12-30T19:52:20.108Z,34.23
2018-12-30T19:54:48.739Z,36.17
2018-12-30T19:57:17.718Z,35.60
2018-12-30T19:59:46.117Z,34.63
2018-12-30T20:02:14.735Z,34.23
2018-12-30T20:04:43.128Z,34.37
2018-12-30T20:07:11.524Z,34.07
2018-12-30T20:09:39.953Z,34.50
2018-12-30T20:12:08.413Z,33.50
2018-12-30T20:14:36.798Z,31.97
2018-12-30T20:17:10.222Z,34.10
2018-12-30T20:19:38.929Z,33.50
2018-12-30T20:22:07.588Z,34.40
2018-12-30T20:24:36.195Z,35.20
2018-12-30T20:27:04.715Z,35.40
2018-12-30T20:29:33.107Z,35.80
2018-12-30T20:32:07.135Z,34.63
2018-12-30T20:34:43.203Z,36.93
2018-12-30T20:37:14.275Z,34.17
2018-12-30T20:39:43.797Z,35.57
2018-12-30T20:42:15.190Z,34.37
2018-12-30T20:44:44.818Z,33.53
2018-12-30T20:47:15.679Z,35.83
2018-12-30T20:49:45.700Z,33.57
2018-12-30T20:52:21.350Z,33.37
2018-12-30T20:54:52.786Z,34.23
2018-12-30T20:57:21.322Z,34.30
2018-12-30T20:59:49.713Z,33.40
2018-12-30T21:02:18.183Z,33.40
2018-12-30T21:04:46.624Z,32.83
2018-12-30T21:07:15.032Z,34.30
2018-12-30T21:09:43.439Z,36.03
2018-12-30T21:12:11.882Z,35.40
2018-12-30T21:14:40.290Z,35.33
2018-12-30T21:17:08.684Z,33.00
2018-12-30T21:19:37.074Z,34.30
2018-12-30T21:22:05.491Z,34.63
2018-12-30T21:24:33.965Z,33.33
2018-12-30T21:27:02.346Z,33.53
2018-12-30T21:29:31.018Z,34.43
2018-12-30T21:31:59.450Z,34.20
2018-12-30T21:34:27.865Z,34.73
2018-12-30T21:36:56.279Z,33.00
2018-12-30T21:39:24.672Z,33.63
2018-12-30T21:41:53.065Z,35.10
2018-12-30T21:44:21.880Z,35.43
2018-12-30T21:46:50.269Z,35.33
2018-12-30T21:49:19.061Z,35.33
2018-12-30T21:51:47.438Z,33.53
2018-12-30T21:54:15.824Z,35.20
2018-12-30T21:56:44.491Z,34.90
2018-12-30T21:59:13.179Z,35.43
2018-12-30T22:01:41.569Z,33.77
2018-12-30T22:04:10.174Z,35.57
2018-12-30T22:06:38.842Z,34.53
2018-12-30T22:09:07.226Z,35.10
2018-12-30T22:11:35.758Z,34.77
2018-12-30T22:14:05.790Z,37.43
2018-12-30T22:16:34.472Z,35.20
2018-12-30T22:19:02.865Z,36.47
2018-12-30T22:21:31.247Z,37.23
2018-12-30T22:23:59.642Z,35.30
2018-12-30T22:26:29.590Z,35.40
2018-12-30T22:28:58.232Z,34.90
2018-12-30T22:31:26.624Z,36.17
2018-12-30T22:34:00.115Z,34.50
2018-12-30T22:36:28.519Z,35.27
2018-12-30T22:38:57.279Z,35.67
2018-12-30T22:41:28.459Z,38.33
2018-12-30T22:43:57.665Z,36.60
2018-12-30T22:46:31.490Z,36.60
2018-12-30T22:48:59.932Z,36.83
2018-12-30T22:51:28.319Z,35.50
2018-12-30T22:53:56.722Z,35.70
2018-12-30T22:56:25.238Z,36.23
2018-12-30T22:58:53.638Z,36.50
2018-12-30T23:01:22.646Z,34.07
2018-12-30T23:03:51.028Z,36.30
2018-12-30T23:06:19.617Z,38.00
2018-12-30T23:08:48.025Z,36.20
2018-12-30T23:11:16.406Z,37.67
2018-12-30T23:13:44.795Z,36.40
2018-12-30T23:16:13.177Z,37.47
2018-12-30T23:18:41.992Z,37.97
2018-12-30T23:21:10.683Z,37.93
2018-12-30T23:23:39.365Z,38.37
2018-12-30T23:26:07.757Z,37.60
2018-12-30T23:28:36.158Z,36.97
2018-12-30T23:31:04.557Z,37.63
2018-12-30T23:33:33.295Z,35.63
2018-12-30T23:36:01.692Z,35.60
2018-12-30T23:38:30.074Z,37.37
2018-12-30T23:40:58.733Z,36.70
2018-12-30T23:43:27.860Z,35.93
2018-12-30T23:45:56.255Z,38.27
2018-12-30T23:48:25.002Z,35.20
2018-12-30T23:50:53.686Z,36.03
2018-12-30T23:53:22.576Z,39.03
2018-12-30T23:55:51.814Z,38.90
2018-12-30T23:58:20.564Z,37.90
